Time;durP1;ratioP1;P1;durP2;ratioP2;P2;SDS_P1;SDS_P2;PMS_P1;PMS_P2;Temp;Humidity;BMP_temperature;BMP_pressure;BME280_temperature;BME280_humidity;BME280_pressure;Samples;Min_cycle;Max_cycle;Signal;HPM_P1;HPM_P2
2021/04/05 00:02:06;;;;;;;;;;;;;;;20.69;27.19;99739.47;4415407;32;20004;-60
2021/04/05 00:04:32;;;;;;;;;;;;;;;20.63;27.24;99745.66;4416878;32;19954;-60
2021/04/05 00:06:58;;;;;;;;;;;;;;;20.62;27.21;99743.00;4416373;32;20402;-59
2021/04/05 00:09:24;;;;;;;;;;;;;;;20.54;27.35;99740.34;4417209;32;19984;-60
2021/04/05 00:11:50;;;;;;;;;;;;;;;20.58;27.27;99738.59;4416472;32;20539;-60
2021/04/05 00:14:15;;;;;;;;;;;;;;;20.56;27.24;99732.38;4416908;32;20009;-60
2021/04/05 00:16:41;;;;;;;;;;;;;;;20.61;27.17;99730.66;4416100;32;20576;-60
2021/04/05 00:19:07;;;;;;;;;;;;;;;20.58;27.24;99720.94;4406948;32;19954;-60
2021/04/05 00:21:33;;;;;;;;;;;;;;;20.62;27.13;99712.13;4409903;32;19954;-60
2021/04/05 00:23:59;;;;;;;;;;;;;;;20.57;27.21;99705.06;4417598;32;19991;-58
2021/04/05 00:26:25;;;;;;;;;;;;;;;20.58;27.19;99704.19;4416555;32;19961;-60
2021/04/05 00:28:51;;;;;;;;;;;;;;;20.51;27.27;99698.03;4414917;32;19973;-59
2021/04/05 00:31:17;;;;;;;;;;;;;;;20.52;27.29;99693.59;4410012;32;20011;-60
2021/04/05 00:33:43;;;;;;;;;;;;;;;20.53;27.28;99675.09;4406802;32;19997;-60
2021/04/05 00:36:08;;;;;;;;;;;;;;;20.53;27.30;99653.03;4416887;32;20297;-59
2021/04/05 00:38:35;;;;;;;;;;;;;;;20.52;27.27;99645.97;4416586;32;19974;-60
2021/04/05 00:41:01;;;;;;;;;;;;;;;20.47;27.32;99643.34;4417602;32;19958;-59
2021/04/05 00:43:27;;;;;;;;;;;;;;;20.48;27.33;99651.28;4417381;32;19972;-60
2021/04/05 00:45:53;;;;;;;;;;;;;;;20.55;27.17;99660.09;4416570;32;19938;-60
2021/04/05 00:48:19;;;;;;;;;;;;;;;20.56;27.17;99658.31;4415126;32;19998;-59
2021/04/05 00:50:45;;;;;;;;;;;;;;;20.55;27.18;99640.69;4417780;32;19984;-60
2021/04/05 00:53:11;;;;;;;;;;;;;;;20.49;27.22;99629.25;4416104;32;19954;-60
2021/04/05 00:55:38;;;;;;;;;;;;;;;20.38;27.44;99628.34;4416977;32;20023;-60
2021/04/05 00:58:04;;;;;;;;;;;;;;;20.44;27.32;99623.09;4416684;32;19962;-59
2021/04/05 01:00:30;;;;;;;;;;;;;;;20.39;27.43;99603.66;4415961;32;19983;-60
2021/04/05 01:02:56;;;;;;;;;;;;;;;20.48;27.29;99593.09;4417701;32;19990;-60
2021/04/05 01:05:21;;;;;;;;;;;;;;;20.48;27.21;99595.75;4417222;32;19972;-59
2021/04/05 01:07:48;;;;;;;;;;;;;;;20.46;27.28;99610.72;4416138;32;19941;-60
2021/04/05 01:10:13;;;;;;;;;;;;;;;20.41;27.34;99609.84;4414908;32;20001;-60
2021/04/05 01:12:39;;;;;;;;;;;;;;;20.35;27.42;99607.19;4405353;32;19934;-60
2021/04/05 01:15:05;;;;;;;;;;;;;;;20.42;27.36;99606.31;4393095;32;19990;-59
2021/04/05 01:17:31;;;;;;;;;;;;;;;20.41;27.38;99596.63;4401986;32;20287;-60
2021/04/05 01:19:57;;;;;;;;;;;;;;;20.40;27.34;99589.56;4403973;32;19962;-60
2021/04/05 01:22:23;;;;;;;;;;;;;;;20.40;27.35;99589.56;4411109;32;20040;-60
2021/04/05 01:24:50;;;;;;;;;;;;;;;20.43;27.25;99573.69;4419130;32;20003;-60
2021/04/05 01:27:16;;;;;;;;;;;;;;;20.36;27.37;99572.81;4419091;32;19980;-60
2021/04/05 01:29:42;;;;;;;;;;;;;;;20.32;27.38;99573.69;4416974;32;20355;-59
2021/04/05 01:32:08;;;;;;;;;;;;;;;20.42;27.28;99581.63;4418048;32;19986;-60
2021/04/05 01:34:34;;;;;;;;;;;;;;;20.30;27.50;99583.41;4420069;32;19938;-60
2021/04/05 01:36:59;;;;;;;;;;;;;;;20.41;27.29;99577.25;4419302;32;19955;-59
2021/04/05 01:39:25;;;;;;;;;;;;;;;20.39;27.32;99561.34;4419441;32;19993;-60
2021/04/05 01:41:51;;;;;;;;;;;;;;;20.40;27.34;99552.53;4419258;32;20268;-60
2021/04/05 01:44:17;;;;;;;;;;;;;;;20.30;27.47;99541.09;4417704;32;19938;-60
2021/04/05 01:46:43;;;;;;;;;;;;;;;20.34;27.36;99531.41;4419895;32;20545;-59
2021/04/05 01:49:09;;;;;;;;;;;;;;;20.28;27.53;99536.69;4419651;32;19962;-59
2021/04/05 01:51:35;;;;;;;;;;;;;;;20.39;27.35;99529.63;4419887;32;20020;-60
2021/04/05 01:54:01;;;;;;;;;;;;;;;20.34;27.35;99511.13;4420263;32;19995;-60
2021/04/05 01:56:27;;;;;;;;;;;;;;;20.34;27.33;99500.53;4419138;32;19961;-60
2021/04/05 01:58:53;;;;;;;;;;;;;;;20.30;27.40;99497.91;4419238;32;19976;-60
2021/04/05 02:01:19;;;;;;;;;;;;;;;20.30;27.41;99484.69;4418821;32;19949;-60
2021/04/05 02:03:45;;;;;;;;;;;;;;;20.28;27.41;99479.41;4420357;32;19954;-60
2021/04/05 02:06:11;;;;;;;;;;;;;;;20.25;27.53;99468.84;4418845;32;20005;-60
2021/04/05 02:08:37;;;;;;;;;;;;;;;20.24;27.46;99466.19;4419625;32;20272;-59
2021/04/05 02:11:02;;;;;;;;;;;;;;;20.28;27.50;99462.66;4419778;32;19938;-60
2021/04/05 02:13:28;;;;;;;;;;;;;;;20.25;27.51;99449.44;4419040;32;19966;-60
2021/04/05 02:15:54;;;;;;;;;;;;;;;20.24;27.52;99445.91;4419111;32;19947;-60
2021/04/05 02:18:20;;;;;;;;;;;;;;;20.29;27.38;99432.69;4418238;32;19988;-59
2021/04/05 02:20:46;;;;;;;;;;;;;;;20.25;27.49;99441.53;4420427;32;20377;-60
2021/04/05 02:23:12;;;;;;;;;;;;;;;20.31;27.36;99437.09;4419413;32;20002;-59
2021/04/05 02:26:05;;;;;;;;;;;;;;;20.25;27.49;99436.22;4413422;32;19950;-60
2021/04/05 02:28:24;;;;;;;;;;;;;;;20.26;27.49;99422.13;4418385;32;20071;-60
2021/04/05 02:30:50;;;;;;;;;;;;;;;20.22;27.41;99422.16;4418779;32;20327;-60
2021/04/05 02:33:15;;;;;;;;;;;;;;;20.27;27.41;99418.59;4419417;32;19954;-60
2021/04/05 02:35:41;;;;;;;;;;;;;;;20.20;27.58;99412.44;4419779;32;19954;-60
2021/04/05 02:38:07;;;;;;;;;;;;;;;20.24;27.48;99408.03;4418197;32;19997;-60
2021/04/05 02:40:33;;;;;;;;;;;;;;;20.22;27.46;99394.81;4419478;32;20307;-60
2021/04/05 02:42:59;;;;;;;;;;;;;;;20.20;27.51;99391.31;4417204;32;20002;-60
2021/04/05 02:45:25;;;;;;;;;;;;;;;20.18;27.47;99382.50;4417935;32;19952;-60
2021/04/05 02:47:51;;;;;;;;;;;;;;;20.19;27.47;99369.28;4419225;32;19992;-59
2021/04/05 02:50:17;;;;;;;;;;;;;;;20.17;27.52;99376.31;4419717;32;19949;-60
2021/04/05 02:52:43;;;;;;;;;;;;;;;20.20;27.47;99381.63;4419713;32;20399;-60
2021/04/05 02:55:08;;;;;;;;;;;;;;;20.20;27.41;99370.16;4418432;32;20346;-60
2021/04/05 02:57:34;;;;;;;;;;;;;;;20.16;27.48;99371.91;4418134;32;20652;-60
2021/04/05 03:00:00;;;;;;;;;;;;;;;20.20;27.46;99371.06;4419082;32;19949;-60
2021/04/05 03:02:26;;;;;;;;;;;;;;;20.09;27.61;99367.56;4418563;32;19946;-60
2021/04/05 03:04:52;;;;;;;;;;;;;;;20.12;27.57;99351.69;4417916;32;20006;-60
2021/04/05 03:07:18;;;;;;;;;;;;;;;20.08;27.64;99334.09;4416454;32;20412;-60
2021/04/05 03:09:44;;;;;;;;;;;;;;;20.10;27.59;99327.03;4418235;32;20013;-58
2021/04/05 03:12:10;;;;;;;;;;;;;;;20.14;27.47;99322.63;4417933;32;20001;-60
2021/04/05 03:14:36;;;;;;;;;;;;;;;20.12;27.51;99317.31;4419047;32;20040;-59
2021/04/05 03:17:02;;;;;;;;;;;;;;;20.19;27.51;99311.12;4417630;32;19962;-60
2021/04/05 03:19:27;;;;;;;;;;;;;;;20.11;27.49;99314.66;4418956;32;19985;-60
2021/04/05 03:21:53;;;;;;;;;;;;;;;20.02;27.69;99313.84;4410077;32;19990;-60
2021/04/05 03:24:19;;;;;;;;;;;;;;;20.06;27.63;99322.59;4401829;32;20021;-60
2021/04/05 03:26:45;;;;;;;;;;;;;;;20.05;27.64;99313.81;4409403;32;20014;-60
2021/04/05 03:29:11;;;;;;;;;;;;;;;20.07;27.60;99311.19;4417921;32;19942;-60
2021/04/05 03:31:37;;;;;;;;;;;;;;;20.13;27.49;99310.28;4417673;32;19962;-60
2021/04/05 03:34:03;;;;;;;;;;;;;;;20.12;27.59;99305.84;4418511;32;20343;-59
2021/04/05 03:36:29;;;;;;;;;;;;;;;20.03;27.62;99310.31;4418765;32;19980;-60
2021/04/05 03:38:55;;;;;;;;;;;;;;;20.07;27.59;99312.03;4417906;32;19954;-60
2021/04/05 03:41:21;;;;;;;;;;;;;;;20.11;27.52;99307.63;4415917;32;19961;-60
2021/04/05 03:43:46;;;;;;;;;;;;;;;20.10;27.58;99297.94;4415715;32;19957;-59
2021/04/05 03:46:12;;;;;;;;;;;;;;;20.11;27.60;99290.88;4416060;32;20032;-60
2021/04/05 03:48:38;;;;;;;;;;;;;;;20.06;27.57;99293.53;4416593;32;20684;-60
2021/04/05 03:51:04;;;;;;;;;;;;;;;20.07;27.53;99287.41;4418135;32;20025;-59
2021/04/05 03:53:30;;;;;;;;;;;;;;;20.02;27.70;99278.59;4418443;32;19950;-60
2021/04/05 03:55:56;;;;;;;;;;;;;;;19.94;27.79;99276.87;4418425;32;20313;-60
2021/04/05 03:58:22;;;;;;;;;;;;;;;20.04;27.66;99274.16;4417239;32;19987;-60
2021/04/05 04:00:47;;;;;;;;;;;;;;;20.04;27.66;99264.50;4417983;32;19938;-60
2021/04/05 04:03:13;;;;;;;;;;;;;;;20.02;27.69;99262.72;4417861;32;19954;-60
2021/04/05 04:05:48;;;;;;;;;;;;;;;20.00;27.75;99240.72;4418450;32;19950;-60
2021/04/05 04:08:21;;;;;;;;;;;;;;;19.96;27.77;99231.91;4417185;32;19962;-60
2021/04/05 04:10:47;;;;;;;;;;;;;;;19.97;27.73;99216.97;4415024;32;19962;-60
2021/04/05 04:13:13;;;;;;;;;;;;;;;19.98;27.74;99216.94;4416490;32;19938;-60
2021/04/05 04:15:39;;;;;;;;;;;;;;;19.94;27.83;99210.81;4417061;32;19958;-59
2021/04/05 04:18:05;;;;;;;;;;;;;;;20.03;27.66;99198.41;4416321;32;19996;-60
2021/04/05 04:20:31;;;;;;;;;;;;;;;20.04;27.61;99194.88;4417730;32;19946;-60
2021/04/05 04:22:57;;;;;;;;;;;;;;;19.92;27.84;99196.69;4410850;32;19942;-60
2021/04/05 04:25:23;;;;;;;;;;;;;;;19.99;27.70;99191.41;4400600;32;20106;-60
2021/04/05 04:27:48;;;;;;;;;;;;;;;19.99;27.75;99191.41;4408349;32;19954;-60
2021/04/05 04:30:14;;;;;;;;;;;;;;;20.02;27.69;99180.81;4417690;32;19971;-60
2021/04/05 04:32:40;;;;;;;;;;;;;;;20.03;27.67;99193.13;4417245;32;19952;-60
2021/04/05 04:35:06;;;;;;;;;;;;;;;20.04;27.65;99186.97;4418029;32;19989;-60
2021/04/05 04:37:32;;;;;;;;;;;;;;;20.07;27.62;99189.62;4417063;32;19942;-60
2021/04/05 04:39:58;;;;;;;;;;;;;;;20.06;27.54;99179.91;4418427;32;19954;-60
2021/04/05 04:42:24;;;;;;;;;;;;;;;20.02;27.65;99170.25;4415994;32;20343;-59
2021/04/05 04:44:50;;;;;;;;;;;;;;;20.02;27.62;99165.84;4418061;32;19962;-59
2021/04/05 04:47:16;;;;;;;;;;;;;;;20.04;27.58;99165.81;4416957;32;19985;-60
2021/04/05 04:49:42;;;;;;;;;;;;;;;20.03;27.66;99161.44;4419824;32;19950;-60
2021/04/05 04:52:07;;;;;;;;;;;;;;;19.99;27.75;99168.47;4421395;32;19972;-60
2021/04/05 04:54:33;;;;;;;;;;;;;;;19.96;27.73;99160.56;4406877;32;20005;-60
2021/04/05 04:56:59;;;;;;;;;;;;;;;20.07;27.53;99164.03;4404964;32;20028;-60
2021/04/05 04:59:25;;;;;;;;;;;;;;;20.02;27.65;99167.59;4418482;32;20301;-60
2021/04/05 05:01:51;;;;;;;;;;;;;;;20.01;27.68;99156.16;4420235;32;19988;-60
2021/04/05 05:04:17;;;;;;;;;;;;;;;19.94;27.79;99150.03;4419660;32;20248;-60
2021/04/05 05:06:43;;;;;;;;;;;;;;;19.94;27.78;99157.97;4420744;32;19954;-60
2021/04/05 05:09:09;;;;;;;;;;;;;;;20.02;27.66;99150.00;4419838;32;19983;-60
2021/04/05 05:11:35;;;;;;;;;;;;;;;20.01;27.69;99144.72;4420042;32;19964;-60
2021/04/05 05:14:00;;;;;;;;;;;;;;;19.96;27.73;99139.44;4420102;32;20350;-60
2021/04/05 05:16:26;;;;;;;;;;;;;;;19.97;27.80;99124.47;4418052;32;19953;-60
2021/04/05 05:18:52;;;;;;;;;;;;;;;19.89;27.93;99120.06;4419498;32;19955;-60
2021/04/05 05:21:18;;;;;;;;;;;;;;;19.97;27.69;99124.47;4420101;32;19958;-60
2021/04/05 05:23:44;;;;;;;;;;;;;;;20.03;27.68;99119.13;4414763;32;19972;-60
2021/04/05 05:26:10;;;;;;;;;;;;;;;19.99;27.68;99122.69;4404427;32;20324;-60
2021/04/05 05:28:36;;;;;;;;;;;;;;;20.03;27.70;99119.13;4409813;32;19949;-60
2021/04/05 05:31:02;;;;;;;;;;;;;;;19.98;27.72;99110.38;4420404;32;20315;-60
2021/04/05 05:33:28;;;;;;;;;;;;;;;20.00;27.78;99100.66;4419920;32;19978;-60
2021/04/05 05:35:53;;;;;;;;;;;;;;;19.94;27.82;99085.72;4420216;32;19978;-60
2021/04/05 05:38:19;;;;;;;;;;;;;;;19.96;27.77;99089.25;4419403;32;19996;-60
2021/04/05 05:40:45;;;;;;;;;;;;;;;20.00;27.72;99090.09;4419744;32;20019;-59
2021/04/05 05:43:11;;;;;;;;;;;;;;;20.02;27.68;99089.22;4420167;32;19974;-60
2021/04/05 05:45:37;;;;;;;;;;;;;;;20.00;27.71;99092.75;4418977;32;20329;-60
2021/04/05 05:48:03;;;;;;;;;;;;;;;20.02;27.76;99096.25;4419015;32;19950;-60
2021/04/05 05:50:29;;;;;;;;;;;;;;;19.95;27.83;99100.69;4419276;32;20014;-60
2021/04/05 05:52:55;;;;;;;;;;;;;;;19.97;27.88;99096.28;4419767;32;19934;-60
2021/04/05 05:55:21;;;;;;;;;;;;;;;19.96;27.81;99086.59;4418869;32;20678;-60
2021/04/05 05:57:47;;;;;;;;;;;;;;;19.97;27.83;99076.91;4419148;32;19962;-60
2021/04/05 06:00:12;;;;;;;;;;;;;;;19.90;27.96;99076.91;4418772;32;19938;-60
2021/04/05 06:02:38;;;;;;;;;;;;;;;20.01;27.79;99073.34;4419031;32;20539;-60
2021/04/05 06:05:04;;;;;;;;;;;;;;;19.99;27.81;99064.56;4419485;32;19954;-60
2021/04/05 06:07:30;;;;;;;;;;;;;;;19.98;27.90;99070.75;4418587;32;19991;-60
2021/04/05 06:09:56;;;;;;;;;;;;;;;19.99;27.85;99076.00;4419600;32;19988;-60
2021/04/05 06:12:22;;;;;;;;;;;;;;;20.02;27.81;99069.81;4418553;32;19967;-60
2021/04/05 06:14:48;;;;;;;;;;;;;;;19.92;28.02;99067.25;4419780;32;20581;-60
2021/04/05 06:17:14;;;;;;;;;;;;;;;19.92;27.99;99059.31;4418056;32;20339;-60
2021/04/05 06:19:40;;;;;;;;;;;;;;;19.96;27.92;99065.47;4419454;32;19946;-60
2021/04/05 06:22:06;;;;;;;;;;;;;;;19.95;27.96;99058.41;4415155;32;20370;-60
2021/04/05 06:24:33;;;;;;;;;;;;;;;19.94;28.01;99054.91;4414973;32;19979;-60
2021/04/05 06:27:01;;;;;;;;;;;;;;;19.98;27.97;99057.53;4406421;32;20380;-60
2021/04/05 06:29:27;;;;;;;;;;;;;;;19.97;28.03;99053.12;4416969;32;19958;-60
2021/04/05 06:31:53;;;;;;;;;;;;;;;20.05;28.00;99056.59;4418912;32;20028;-60
2021/04/05 06:34:19;;;;;;;;;;;;;;;20.06;27.89;99055.69;4418677;32;19998;-60
2021/04/05 06:36:45;;;;;;;;;;;;;;;20.00;28.00;99050.47;4418373;32;20006;-60
2021/04/05 06:39:11;;;;;;;;;;;;;;;19.98;28.04;99046.97;4418255;32;20022;-60
2021/04/05 06:41:37;;;;;;;;;;;;;;;19.98;28.08;99044.31;4418704;32;20335;-60
2021/04/05 06:44:03;;;;;;;;;;;;;;;20.07;27.98;99046.91;4417530;32;19954;-58
2021/04/05 06:46:29;;;;;;;;;;;;;;;20.13;27.88;99048.63;4418421;32;19950;-60
2021/04/05 06:48:55;;;;;;;;;;;;;;;20.08;27.95;99048.66;4418039;32;20298;-60
2021/04/05 06:51:20;;;;;;;;;;;;;;;20.03;28.03;99034.59;4418959;32;19953;-60
2021/04/05 06:53:46;;;;;;;;;;;;;;;20.05;28.03;99028.41;4419439;32;20370;-60
2021/04/05 06:56:12;;;;;;;;;;;;;;;20.06;28.06;99029.25;4417642;32;19950;-59
2021/04/05 06:58:38;;;;;;;;;;;;;;;20.03;28.09;99030.19;4416442;32;19965;-60
2021/04/05 07:01:04;;;;;;;;;;;;;;;20.03;28.14;99018.72;4417831;32;19992;-59
2021/04/05 07:03:30;;;;;;;;;;;;;;;20.04;28.12;99039.88;4419059;32;20328;-60
2021/04/05 07:05:56;;;;;;;;;;;;;;;20.05;28.10;99053.94;4419410;32;20027;-59
2021/04/05 07:08:22;;;;;;;;;;;;;;;20.07;28.09;99052.19;4418280;32;19949;-60
2021/04/05 07:10:48;;;;;;;;;;;;;;;20.08;28.11;99053.94;4417868;32;19942;-60
2021/04/05 07:13:15;;;;;;;;;;;;;;;20.12;28.06;99060.06;4417960;32;20290;-60
2021/04/05 07:15:42;;;;;;;;;;;;;;;20.08;28.15;99059.22;4417825;32;19972;-60
2021/04/05 07:18:08;;;;;;;;;;;;;;;20.14;28.06;99063.59;4416177;32;19946;-60
2021/04/05 07:20:35;;;;;;;;;;;;;;;20.12;28.11;99066.22;4417947;32;20279;-59
2021/04/05 07:23:01;;;;;;;;;;;;;;;20.06;28.22;99060.97;4418630;32;19953;-60
2021/04/05 07:25:27;;;;;;;;;;;;;;;20.03;28.28;99055.72;4417345;32;20004;-60
2021/04/05 07:27:52;;;;;;;;;;;;;;;20.03;28.37;99050.44;4418124;32;19961;-60
2021/04/05 07:30:21;;;;;;;;;;;;;;;20.03;28.28;99053.09;4417362;32;20275;-60
2021/04/05 07:32:47;;;;;;;;;;;;;;;20.03;28.37;99050.44;4419048;32;19954;-60
2021/04/05 07:35:13;;;;;;;;;;;;;;;20.05;28.30;99052.19;4417739;32;19964;-60
2021/04/05 07:37:39;;;;;;;;;;;;;;;19.99;28.41;99043.44;4418634;32;20343;-60
2021/04/05 07:40:05;;;;;;;;;;;;;;;20.00;28.44;99026.69;4416482;32;19969;-59
2021/04/05 07:42:31;;;;;;;;;;;;;;;20.04;28.40;99031.03;4416222;32;19944;-60
2021/04/05 07:44:57;;;;;;;;;;;;;;;20.03;28.39;99016.09;4418448;32;20342;-60
2021/04/05 07:47:23;;;;;;;;;;;;;;;20.03;28.41;99019.63;4417546;32;20041;-60
2021/04/05 07:49:49;;;;;;;;;;;;;;;20.00;28.51;99024.03;4417099;32;19949;-60
2021/04/05 07:52:15;;;;;;;;;;;;;;;20.02;28.48;99016.97;4416897;32;19954;-60
2021/04/05 07:54:40;;;;;;;;;;;;;;;20.04;28.47;99013.44;4417620;32;19962;-60
2021/04/05 07:57:07;;;;;;;;;;;;;;;20.05;28.47;99016.94;4405951;32;20786;-59
2021/04/05 07:59:33;;;;;;;;;;;;;;;20.03;28.52;99014.34;4403100;32;19953;-59
2021/04/05 08:01:59;;;;;;;;;;;;;;;20.03;28.53;99027.53;4412490;32;19938;-60
2021/04/05 08:04:25;;;;;;;;;;;;;;;20.00;28.59;99024.94;4417527;32;19954;-59
2021/04/05 08:06:50;;;;;;;;;;;;;;;20.05;28.55;99016.94;4416348;32;19961;-60
2021/04/05 08:09:16;;;;;;;;;;;;;;;20.09;28.50;99010.75;4417324;32;19988;-60
2021/04/05 08:11:42;;;;;;;;;;;;;;;20.08;28.52;99014.31;4417424;32;19991;-59
2021/04/05 08:14:08;;;;;;;;;;;;;;;20.05;28.55;99011.66;4415783;32;20346;-60
2021/04/05 08:16:34;;;;;;;;;;;;;;;20.09;28.52;99008.13;4417325;32;19950;-60
2021/04/05 08:19:00;;;;;;;;;;;;;;;20.08;28.58;99006.38;4418311;32;19946;-60
2021/04/05 08:21:26;;;;;;;;;;;;;;;20.10;28.56;99004.59;4413095;32;19946;-60
2021/04/05 08:23:52;;;;;;;;;;;;;;;20.15;28.51;99004.56;4402515;32;19958;-60
2021/04/05 08:26:27;;;;;;;;;;;;;;;20.15;28.51;99000.13;4406539;32;19942;-60
2021/04/05 08:28:53;;;;;;;;;;;;;;;20.14;28.54;99005.44;4416579;32;20009;-59
2021/04/05 08:31:19;;;;;;;;;;;;;;;20.19;28.50;99004.53;4413999;32;19938;-60
2021/04/05 08:33:44;;;;;;;;;;;;;;;20.18;28.51;98992.16;4418153;32;19958;-58
2021/04/05 08:36:10;;;;;;;;;;;;;;;20.13;28.59;98988.69;4416570;32;19958;-55
2021/04/05 08:38:36;;;;;;;;;;;;;;;19.69;29.21;98981.94;4416849;32;19943;-54
2021/04/05 08:41:02;;;;;;;;;;;;;;;19.96;28.85;98980.03;4417180;32;19935;-55
2021/04/05 08:43:28;;;;;;;;;;;;;;;20.09;28.66;98986.97;4416132;32;20384;-54
2021/04/05 08:45:54;;;;;;;;;;;;;;;20.20;28.48;98987.78;4415119;32;19978;-54
2021/04/05 08:48:20;;;;;;;;;;;;;;;20.24;28.46;98990.38;4415089;32;20026;-55
2021/04/05 08:50:46;;;;;;;;;;;;;;;20.19;28.51;98983.38;4415351;32;20011;-53
2021/04/05 08:53:11;;;;;;;;;;;;;;;20.21;28.50;98980.69;4415195;32;20416;-56
2021/04/05 08:55:38;;;;;;;;;;;;;;;20.26;28.48;98993.88;4412151;32;19961;-49
2021/04/05 08:58:03;;;;;;;;;;;;;;;20.21;28.58;98997.44;4416227;32;19959;-53
2021/04/05 09:00:29;;;;;;;;;;;;;;;20.21;28.57;99002.72;4411650;32;20394;-53
2021/04/05 09:02:55;;;;;;;;;;;;;;;20.28;28.47;99000.91;4415113;32;19964;-55
2021/04/05 09:05:22;;;;;;;;;;;;;;;20.35;28.38;98994.66;4416453;32;19950;-54
2021/04/05 09:07:47;;;;;;;;;;;;;;;20.32;28.46;98980.63;4414888;32;19942;-52
2021/04/05 09:10:13;;;;;;;;;;;;;;;20.22;28.60;98987.72;4416204;32;19946;-54
2021/04/05 09:12:40;;;;;;;;;;;;;;;20.27;28.54;98988.59;4414824;32;19946;-54
2021/04/05 09:15:06;;;;;;;;;;;;;;;20.33;28.47;98990.28;4414137;32;20006;-56
2021/04/05 09:17:33;;;;;;;;;;;;;;;20.30;28.52;98985.91;4415542;32;19973;-54
2021/04/05 09:19:59;;;;;;;;;;;;;;;20.26;28.63;98984.19;4415639;32;19957;-53
2021/04/05 09:22:25;;;;;;;;;;;;;;;20.24;28.69;98974.50;4414962;32;19961;-53
2021/04/05 09:24:51;;;;;;;;;;;;;;;20.29;28.75;98972.69;4415851;32;19972;-54
2021/04/05 09:27:17;;;;;;;;;;;;;;;20.24;28.72;98969.22;4415108;32;20056;-54
2021/04/05 09:29:43;;;;;;;;;;;;;;;20.25;28.75;98969.22;4416257;32;19954;-52
2021/04/05 09:32:09;;;;;;;;;;;;;;;20.30;28.65;98971.78;4412835;32;19949;-53
2021/04/05 09:34:35;;;;;;;;;;;;;;;20.29;28.83;98983.25;4415824;32;20322;-56
2021/04/05 09:37:01;;;;;;;;;;;;;;;20.24;28.84;98979.81;4419406;32;20017;-53
2021/04/05 09:39:26;;;;;;;;;;;;;;;20.18;28.93;98965.72;4418969;32;19954;-55
2021/04/05 09:41:52;;;;;;;;;;;;;;;20.26;28.88;98973.63;4413951;32;19966;-52
2021/04/05 09:44:18;;;;;;;;;;;;;;;20.30;28.73;98974.44;4417981;32;19966;-55
2021/04/05 09:46:44;;;;;;;;;;;;;;;20.31;28.77;98970.91;4416917;32;19958;-50
2021/04/05 09:49:10;;;;;;;;;;;;;;;20.22;29.04;98967.47;4416795;32;19954;-51
2021/04/05 09:51:36;;;;;;;;;;;;;;;20.11;29.19;98965.81;4416040;32;19958;-51
2021/04/05 09:54:03;;;;;;;;;;;;;;;20.15;29.18;98963.13;4417394;32;19958;-52
2021/04/05 09:56:32;;;;;;;;;;;;;;;20.16;29.13;98962.22;4416706;32;20005;-52
2021/04/05 09:58:58;;;;;;;;;;;;;;;20.27;28.94;98953.34;4416185;32;19954;-54
2021/04/05 10:01:24;;;;;;;;;;;;;;;20.34;28.82;98960.31;4415473;32;20295;-55
2021/04/05 10:03:50;;;;;;;;;;;;;;;20.41;28.72;98955.84;4417399;32;19990;-51
2021/04/05 10:06:16;;;;;;;;;;;;;;;20.45;28.65;98942.59;4416831;32;20019;-52
2021/04/05 10:08:42;;;;;;;;;;;;;;;20.45;28.61;98947.88;4416068;32;19965;-52
2021/04/05 10:11:07;;;;;;;;;;;;;;;20.46;28.67;98936.41;4417020;32;19950;-52
2021/04/05 10:13:33;;;;;;;;;;;;;;;20.42;28.69;98941.72;4415559;32;20335;-51
2021/04/05 10:15:59;;;;;;;;;;;;;;;20.46;28.63;98944.31;4415898;32;19958;-51
2021/04/05 10:18:25;;;;;;;;;;;;;;;20.48;28.58;98942.53;4415468;32;19955;-53
2021/04/05 10:20:51;;;;;;;;;;;;;;;20.53;28.53;98937.19;4415802;32;19990;-52
2021/04/05 10:23:17;;;;;;;;;;;;;;;20.54;28.55;98935.41;4414971;32;19954;-53
2021/04/05 10:25:43;;;;;;;;;;;;;;;20.53;28.56;98928.38;4414993;32;19962;-52
2021/04/05 10:28:09;;;;;;;;;;;;;;;20.58;28.49;98930.09;4403196;32;20001;-54
2021/04/05 10:30:35;;;;;;;;;;;;;;;20.59;28.51;98933.63;4416703;32;19942;-52
2021/04/05 10:33:00;;;;;;;;;;;;;;;20.59;28.47;98933.63;4414691;32;19988;-55
2021/04/05 10:35:26;;;;;;;;;;;;;;;20.61;28.48;98927.37;4412396;32;19968;-53
2021/04/05 10:37:52;;;;;;;;;;;;;;;20.56;28.55;98931.88;4415761;32;19993;-54
2021/04/05 10:40:19;;;;;;;;;;;;;;;20.61;28.49;98916.81;4414542;32;19954;-54
2021/04/05 10:42:45;;;;;;;;;;;;;;;20.60;28.49;98914.19;4415468;32;19966;-53
2021/04/05 10:45:11;;;;;;;;;;;;;;;20.61;28.54;98911.53;4414341;32;20751;-54
2021/04/05 10:47:37;;;;;;;;;;;;;;;20.62;28.50;98913.31;4414346;32;19953;-53
2021/04/05 10:50:02;;;;;;;;;;;;;;;20.65;28.47;98917.66;4415595;32;19989;-53
2021/04/05 10:52:29;;;;;;;;;;;;;;;20.64;28.52;98921.19;4415552;32;20318;-51
2021/04/05 10:54:55;;;;;;;;;;;;;;;20.64;28.47;98916.81;4414474;32;20598;-55
2021/04/05 10:57:20;;;;;;;;;;;;;;;20.64;28.54;98922.09;4412294;32;19962;-53
2021/04/05 10:59:46;;;;;;;;;;;;;;;20.54;28.76;98914.25;4415004;32;20005;-54
2021/04/05 11:02:12;;;;;;;;;;;;;;;20.50;28.78;98919.59;4415612;32;19970;-52
2021/04/05 11:04:38;;;;;;;;;;;;;;;20.45;28.86;98917.91;4416095;32;19954;-53
2021/04/05 11:07:05;;;;;;;;;;;;;;;20.46;28.84;98912.59;4414103;32;19951;-53
2021/04/05 11:09:30;;;;;;;;;;;;;;;20.48;28.84;98915.19;4415077;32;20003;-54
2021/04/05 11:11:56;;;;;;;;;;;;;;;20.50;28.83;98909.00;4414774;32;21305;-53
2021/04/05 11:14:22;;;;;;;;;;;;;;;20.53;28.81;98917.81;4416410;32;19958;-55
2021/04/05 11:16:48;;;;;;;;;;;;;;;20.50;28.81;98916.94;4415382;32;20568;-57
2021/04/05 11:19:14;;;;;;;;;;;;;;;20.52;28.81;98910.75;4411115;32;20014;-57
2021/04/05 11:21:44;;;;;;;;;;;;;;;20.56;28.79;98908.06;4415462;32;19964;-54
2021/04/05 11:24:14;;;;;;;;;;;;;;;20.62;28.72;98912.41;4413610;32;19987;-56
2021/04/05 11:26:40;;;;;;;;;;;;;;;20.64;28.70;98915.91;4413992;32;20302;-56
2021/04/05 11:29:06;;;;;;;;;;;;;;;20.64;28.70;98916.81;4414884;32;19993;-53
2021/04/05 11:31:32;;;;;;;;;;;;;;;20.61;28.74;98921.25;4408933;32;20349;-56
2021/04/05 11:33:58;;;;;;;;;;;;;;;20.64;28.77;98913.25;4410186;32;19995;-55
2021/04/05 11:36:26;;;;;;;;;;;;;;;20.64;28.78;98921.19;4414888;32;19958;-52
2021/04/05 11:38:52;;;;;;;;;;;;;;;20.67;28.76;98937.03;4414545;32;19970;-57
2021/04/05 11:41:18;;;;;;;;;;;;;;;20.67;28.77;98937.03;4414177;32;19990;-55
2021/04/05 11:43:44;;;;;;;;;;;;;;;20.64;28.77;98943.25;4415229;32;19957;-54
2021/04/05 11:46:10;;;;;;;;;;;;;;;20.62;28.91;98965.31;4409676;32;20016;-55
2021/04/05 11:48:36;;;;;;;;;;;;;;;20.57;28.94;98989.16;4398906;32;20009;-56
2021/04/05 11:51:02;;;;;;;;;;;;;;;20.52;29.12;98982.16;4404004;32;19946;-56
2021/04/05 11:53:28;;;;;;;;;;;;;;;20.56;29.04;98978.59;4400825;32;20047;-54
2021/04/05 11:55:53;;;;;;;;;;;;;;;20.57;29.07;98988.31;4412736;32;19950;-56
2021/04/05 11:58:20;;;;;;;;;;;;;;;20.58;28.99;98984.75;4412854;32;19946;-56
2021/04/05 12:00:47;;;;;;;;;;;;;;;20.52;29.18;98990.09;4412141;32;20343;-56
2021/04/05 12:03:13;;;;;;;;;;;;;;;20.54;29.16;98993.59;4413532;32;20322;-56
2021/04/05 12:05:39;;;;;;;;;;;;;;;20.57;29.13;98991.81;4413207;32;19954;-55
2021/04/05 12:08:05;;;;;;;;;;;;;;;20.61;29.05;98995.31;4411269;32;19964;-56
2021/04/05 12:10:31;;;;;;;;;;;;;;;20.64;28.95;98989.97;4410312;32;20014;-56
2021/04/05 12:12:57;;;;;;;;;;;;;;;20.58;29.06;98995.34;4413911;32;20008;-57
2021/04/05 12:15:23;;;;;;;;;;;;;;;20.60;29.05;99009.41;4413568;32;20056;-55
2021/04/05 12:17:49;;;;;;;;;;;;;;;20.56;29.03;98999.75;4414046;32;20061;-56
2021/04/05 12:20:15;;;;;;;;;;;;;;;20.59;29.07;99007.66;4409712;32;19966;-56
2021/04/05 12:22:41;;;;;;;;;;;;;;;20.60;29.01;99009.41;4413842;32;19970;-57
2021/04/05 12:25:07;;;;;;;;;;;;;;;20.61;28.98;99019.09;4414306;32;19994;-57
2021/04/05 12:27:34;;;;;;;;;;;;;;;20.61;29.05;99027.03;4413876;32;19962;-55
2021/04/05 12:30:00;;;;;;;;;;;;;;;20.67;28.84;99026.09;4414338;32;20388;-56
2021/04/05 12:32:26;;;;;;;;;;;;;;;20.67;28.94;99026.09;4414592;32;19958;-57
2021/04/05 12:34:52;;;;;;;;;;;;;;;20.65;28.85;99036.69;4414566;32;20024;-54
2021/04/05 12:37:18;;;;;;;;;;;;;;;20.61;28.96;99033.19;4411688;32;19970;-56
2021/04/05 12:39:44;;;;;;;;;;;;;;;20.63;29.01;99041.13;4414520;32;20004;-56
2021/04/05 12:42:11;;;;;;;;;;;;;;;20.63;28.92;99035.81;4413113;32;20002;-56